McGill, Nevada
Current Conditions -  °F | °C
As of 12:53 AM on Friday 24 Oct 2014 (Local Time) from KELY Reporting Station
Clear Clear  
Wind Chill: 11°   Ceiling: Unl
Heat Index: 11°   Visibility: 10mi
Dew Point: -3°   Wind: 14mph
Humidity: 37%   Direction: 200°SSW
Pressure: 30.22"   Gusts: NA
Location:  39.4°N, 114.78°W
Report Text: KELY 240753Z AUTO 20012KT 10SM CLR 11/M03 A3022 RMK AO2 SLP147 T01111033 402280033
Loading
Personal Weather Stations






























Interactive Weather Map
Tropical Storm Tracking
New forecast layout! Learn more

10-Day Weather Forecast

Advertisements
Track Severe Weather on mobile